sensor_id;sensor_type;location;lat;lon;timestamp;pressure;altitude;pressure_sealevel;temperature;humidity
60019;BME280;45870;42.528;26.740;2024-01-06T00:02:19;99722.97;;;12.80;47.26
60019;BME280;45870;42.528;26.740;2024-01-06T00:04:44;99720.13;;;13.25;48.21
60019;BME280;45870;42.528;26.740;2024-01-06T00:07:10;99722.31;;;13.28;47.25
60019;BME280;45870;42.528;26.740;2024-01-06T00:09:35;99714.13;;;13.67;46.83
60019;BME280;45870;42.528;26.740;2024-01-06T00:12:01;99719.31;;;14.22;45.25
60019;BME280;45870;42.528;26.740;2024-01-06T00:14:27;99713.72;;;14.97;42.70
60019;BME280;45870;42.528;26.740;2024-01-06T00:16:52;99718.25;;;15.23;42.46
60019;BME280;45870;42.528;26.740;2024-01-06T00:19:18;99703.78;;;15.75;41.16
60019;BME280;45870;42.528;26.740;2024-01-06T00:21:43;99714.63;;;15.60;41.07
60019;BME280;45870;42.528;26.740;2024-01-06T00:24:09;99713.03;;;15.69;41.23
60019;BME280;45870;42.528;26.740;2024-01-06T00:26:34;99712.88;;;14.55;43.40
60019;BME280;45870;42.528;26.740;2024-01-06T00:28:59;99716.59;;;14.80;42.26
60019;BME280;45870;42.528;26.740;2024-01-06T00:31:25;99706.09;;;14.99;42.64
60019;BME280;45870;42.528;26.740;2024-01-06T00:33:50;99710.63;;;14.20;45.11
60019;BME280;45870;42.528;26.740;2024-01-06T00:36:16;99719.81;;;14.40;43.26
60019;BME280;45870;42.528;26.740;2024-01-06T00:38:41;99724.41;;;14.72;43.38
60019;BME280;45870;42.528;26.740;2024-01-06T00:41:07;99725.19;;;14.67;43.10
60019;BME280;45870;42.528;26.740;2024-01-06T00:43:32;99717.59;;;14.69;42.47
60019;BME280;45870;42.528;26.740;2024-01-06T00:45:57;99715.63;;;14.96;42.89
60019;BME280;45870;42.528;26.740;2024-01-06T00:48:23;99712.25;;;13.94;44.78
60019;BME280;45870;42.528;26.740;2024-01-06T00:50:48;99714.91;;;14.74;43.55
60019;BME280;45870;42.528;26.740;2024-01-06T00:53:14;99700.47;;;14.69;42.46
60019;BME280;45870;42.528;26.740;2024-01-06T00:55:39;99706.09;;;14.57;42.68
60019;BME280;45870;42.528;26.740;2024-01-06T00:58:04;99700.13;;;14.28;43.55
60019;BME280;45870;42.528;26.740;2024-01-06T01:00:30;99695.84;;;13.79;47.19
60019;BME280;45870;42.528;26.740;2024-01-06T01:02:55;99690.91;;;14.98;43.63
60019;BME280;45870;42.528;26.740;2024-01-06T01:05:21;99686.53;;;15.44;42.93
60019;BME280;45870;42.528;26.740;2024-01-06T01:07:46;99689.06;;;15.14;43.90
60019;BME280;45870;42.528;26.740;2024-01-06T01:10:11;99679.97;;;15.45;42.64
60019;BME280;45870;42.528;26.740;2024-01-06T01:12:37;99673.44;;;14.89;44.39
60019;BME280;45870;42.528;26.740;2024-01-06T01:15:02;99681.47;;;14.69;46.34
60019;BME280;45870;42.528;26.740;2024-01-06T01:17:28;99675.41;;;15.56;44.03
60019;BME280;45870;42.528;26.740;2024-01-06T01:19:54;99669.69;;;15.52;45.27
60019;BME280;45870;42.528;26.740;2024-01-06T01:22:19;99674.72;;;14.39;46.22
60019;BME280;45870;42.528;26.740;2024-01-06T01:24:44;99677.44;;;14.76;46.38
60019;BME280;45870;42.528;26.740;2024-01-06T01:27:10;99669.19;;;14.61;46.68
60019;BME280;45870;42.528;26.740;2024-01-06T01:29:35;99661.31;;;14.60;47.34
60019;BME280;45870;42.528;26.740;2024-01-06T01:32:01;99655.19;;;13.84;48.73
60019;BME280;45870;42.528;26.740;2024-01-06T01:34:26;99658.44;;;14.76;45.03
60019;BME280;45870;42.528;26.740;2024-01-06T01:36:52;99664.84;;;15.02;44.63
60019;BME280;45870;42.528;26.740;2024-01-06T01:39:17;99663.66;;;15.40;42.46
60019;BME280;45870;42.528;26.740;2024-01-06T01:41:42;99659.63;;;15.53;42.91
60019;BME280;45870;42.528;26.740;2024-01-06T01:44:08;99664.97;;;15.32;43.15
60019;BME280;45870;42.528;26.740;2024-01-06T01:46:33;99664.56;;;15.04;43.14
60019;BME280;45870;42.528;26.740;2024-01-06T01:49:00;99670.63;;;15.21;43.27
60019;BME280;45870;42.528;26.740;2024-01-06T01:51:29;99652.34;;;15.06;43.12
60019;BME280;45870;42.528;26.740;2024-01-06T01:53:55;99649.03;;;14.52;44.91
60019;BME280;45870;42.528;26.740;2024-01-06T01:56:21;99657.19;;;14.52;44.74
60019;BME280;45870;42.528;26.740;2024-01-06T01:58:47;99653.78;;;15.24;43.36
60019;BME280;45870;42.528;26.740;2024-01-06T02:01:13;99657.13;;;14.84;44.06
60019;BME280;45870;42.528;26.740;2024-01-06T02:03:40;99649.28;;;14.92;42.96
60019;BME280;45870;42.528;26.740;2024-01-06T02:06:06;99654.16;;;13.90;46.90
60019;BME280;45870;42.528;26.740;2024-01-06T02:08:31;99654.00;;;14.01;47.90
60019;BME280;45870;42.528;26.740;2024-01-06T02:10:57;99653.88;;;14.45;47.12
60019;BME280;45870;42.528;26.740;2024-01-06T02:13:23;99651.91;;;14.77;45.50
60019;BME280;45870;42.528;26.740;2024-01-06T02:15:49;99648.59;;;15.12;44.88
60019;BME280;45870;42.528;26.740;2024-01-06T02:18:14;99645.88;;;15.17;44.19
60019;BME280;45870;42.528;26.740;2024-01-06T02:20:40;99642.56;;;15.05;45.25
60019;BME280;45870;42.528;26.740;2024-01-06T02:23:08;99633.53;;;15.57;43.96
60019;BME280;45870;42.528;26.740;2024-01-06T02:25:33;99637.06;;;15.52;43.67
60019;BME280;45870;42.528;26.740;2024-01-06T02:28:00;99631.28;;;15.38;44.44
60019;BME280;45870;42.528;26.740;2024-01-06T02:30:25;99635.44;;;15.51;44.38
60019;BME280;45870;42.528;26.740;2024-01-06T02:32:51;99625.56;;;15.45;44.70
60019;BME280;45870;42.528;26.740;2024-01-06T02:35:16;99628.34;;;15.55;43.58
60019;BME280;45870;42.528;26.740;2024-01-06T02:37:41;99631.84;;;14.83;43.90
60019;BME280;45870;42.528;26.740;2024-01-06T02:40:07;99623.41;;;14.80;44.72
60019;BME280;45870;42.528;26.740;2024-01-06T02:42:33;99609.47;;;15.23;43.02
60019;BME280;45870;42.528;26.740;2024-01-06T02:44:58;99611.28;;;15.02;43.41
60019;BME280;45870;42.528;26.740;2024-01-06T02:47:24;99604.44;;;14.90;43.95
60019;BME280;45870;42.528;26.740;2024-01-06T02:49:49;99593.31;;;14.91;43.58
60019;BME280;45870;42.528;26.740;2024-01-06T02:52:14;99589.34;;;14.67;43.62
60019;BME280;45870;42.528;26.740;2024-01-06T02:54:40;99583.41;;;14.28;44.51
60019;BME280;45870;42.528;26.740;2024-01-06T02:57:05;99579.97;;;12.82;49.06
60019;BME280;45870;42.528;26.740;2024-01-06T02:59:31;99590.22;;;13.99;46.35
60019;BME280;45870;42.528;26.740;2024-01-06T03:01:57;99580.41;;;14.67;44.36
60019;BME280;45870;42.528;26.740;2024-01-06T03:04:23;99577.16;;;13.96;44.92
60019;BME280;45870;42.528;26.740;2024-01-06T03:06:48;99585.66;;;13.51;47.28
60019;BME280;45870;42.528;26.740;2024-01-06T03:09:18;99576.09;;;13.17;48.19
60019;BME280;45870;42.528;26.740;2024-01-06T03:11:44;99591.72;;;14.17;45.68
60019;BME280;45870;42.528;26.740;2024-01-06T03:14:09;99596.25;;;14.06;46.07
60019;BME280;45870;42.528;26.740;2024-01-06T03:16:35;99593.34;;;14.55;44.19
60019;BME280;45870;42.528;26.740;2024-01-06T03:19:00;99591.78;;;14.64;44.04
60019;BME280;45870;42.528;26.740;2024-01-06T03:21:26;99575.41;;;13.26;45.51
60019;BME280;45870;42.528;26.740;2024-01-06T03:23:51;99569.91;;;13.48;46.04
60019;BME280;45870;42.528;26.740;2024-01-06T03:26:17;99578.88;;;13.22;47.05
60019;BME280;45870;42.528;26.740;2024-01-06T03:28:43;99579.69;;;13.22;47.57
60019;BME280;45870;42.528;26.740;2024-01-06T03:31:08;99579.94;;;14.38;46.14
60019;BME280;45870;42.528;26.740;2024-01-06T03:33:33;99579.50;;;13.82;46.45
60019;BME280;45870;42.528;26.740;2024-01-06T03:36:03;99576.75;;;13.07;47.51
60019;BME280;45870;42.528;26.740;2024-01-06T03:38:28;99578.25;;;13.15;48.81
60019;BME280;45870;42.528;26.740;2024-01-06T03:40:54;99579.25;;;13.57;47.92
60019;BME280;45870;42.528;26.740;2024-01-06T03:43:19;99577.31;;;13.84;44.49
60019;BME280;45870;42.528;26.740;2024-01-06T03:45:45;99576.31;;;13.64;46.39
60019;BME280;45870;42.528;26.740;2024-01-06T03:48:10;99573.16;;;13.72;47.20
60019;BME280;45870;42.528;26.740;2024-01-06T03:50:35;99584.19;;;13.92;48.19
60019;BME280;45870;42.528;26.740;2024-01-06T03:53:01;99569.72;;;13.86;47.21
60019;BME280;45870;42.528;26.740;2024-01-06T03:55:26;99568.53;;;13.72;47.63
60019;BME280;45870;42.528;26.740;2024-01-06T03:57:52;99565.47;;;14.74;46.29
60019;BME280;45870;42.528;26.740;2024-01-06T04:00:17;99562.31;;;14.04;48.91
60019;BME280;45870;42.528;26.740;2024-01-06T04:02:43;99568.41;;;14.26;48.17
60019;BME280;45870;42.528;26.740;2024-01-06T04:05:08;99576.44;;;12.82;53.18
60019;BME280;45870;42.528;26.740;2024-01-06T04:07:34;99580.78;;;14.38;47.88
60019;BME280;45870;42.528;26.740;2024-01-06T04:09:59;99578.47;;;12.15;54.40
60019;BME280;45870;42.528;26.740;2024-01-06T04:12:25;99566.81;;;12.14;55.67
60019;BME280;45870;42.528;26.740;2024-01-06T04:14:50;99578.09;;;12.83;55.67
60019;BME280;45870;42.528;26.740;2024-01-06T04:17:16;99566.97;;;14.13;50.39
60019;BME280;45870;42.528;26.740;2024-01-06T04:19:41;99574.59;;;14.53;46.50
60019;BME280;45870;42.528;26.740;2024-01-06T04:22:07;99571.56;;;14.44;46.31
60019;BME280;45870;42.528;26.740;2024-01-06T04:24:32;99570.53;;;13.82;46.58
60019;BME280;45870;42.528;26.740;2024-01-06T04:27:02;99563.41;;;13.76;46.99
60019;BME280;45870;42.528;26.740;2024-01-06T04:29:28;99566.22;;;14.18;46.29
60019;BME280;45870;42.528;26.740;2024-01-06T04:31:53;99575.91;;;13.77;46.89
60019;BME280;45870;42.528;26.740;2024-01-06T04:34:18;99566.28;;;14.33;46.95
60019;BME280;45870;42.528;26.740;2024-01-06T04:36:44;99567.19;;;12.78;51.66
60019;BME280;45870;42.528;26.740;2024-01-06T04:39:09;99580.16;;;12.76;53.09
60019;BME280;45870;42.528;26.740;2024-01-06T04:41:35;99575.22;;;12.51;50.06
60019;BME280;45870;42.528;26.740;2024-01-06T04:44:01;99571.31;;;11.47;53.25
60019;BME280;45870;42.528;26.740;2024-01-06T04:46:26;99574.59;;;9.65;56.63
60019;BME280;45870;42.528;26.740;2024-01-06T04:48:51;99568.72;;;10.32;55.02
60019;BME280;45870;42.528;26.740;2024-01-06T04:51:17;99583.59;;;9.59;56.74
60019;BME280;45870;42.528;26.740;2024-01-06T04:53:42;99566.00;;;11.07;51.99
60019;BME280;45870;42.528;26.740;2024-01-06T04:56:08;99564.97;;;11.70;49.03
60019;BME280;45870;42.528;26.740;2024-01-06T04:58:33;99568.94;;;11.50;49.74
60019;BME280;45870;42.528;26.740;2024-01-06T05:00:59;99570.81;;;12.45;48.29
60019;BME280;45870;42.528;26.740;2024-01-06T05:03:25;99574.28;;;13.06;47.84
60019;BME280;45870;42.528;26.740;2024-01-06T05:05:50;99573.44;;;13.22;48.48
60019;BME280;45870;42.528;26.740;2024-01-06T05:08:16;99576.16;;;13.75;47.65
60019;BME280;45870;42.528;26.740;2024-01-06T05:10:43;99561.91;;;10.93;52.02
60019;BME280;45870;42.528;26.740;2024-01-06T05:13:09;99578.84;;;12.40;51.08
60019;BME280;45870;42.528;26.740;2024-01-06T05:15:34;99572.41;;;13.28;47.69
60019;BME280;45870;42.528;26.740;2024-01-06T05:18:00;99561.84;;;13.05;47.09
60019;BME280;45870;42.528;26.740;2024-01-06T05:20:25;99571.69;;;10.94;50.71
60019;BME280;45870;42.528;26.740;2024-01-06T05:22:50;99572.44;;;11.06;51.25
60019;BME280;45870;42.528;26.740;2024-01-06T05:25:16;99577.63;;;12.31;48.09
60019;BME280;45870;42.528;26.740;2024-01-06T05:27:41;99577.47;;;11.87;50.36
60019;BME280;45870;42.528;26.740;2024-01-06T05:30:07;99576.88;;;11.40;51.27
60019;BME280;45870;42.528;26.740;2024-01-06T05:32:33;99577.72;;;12.19;49.14
60019;BME280;45870;42.528;26.740;2024-01-06T05:34:58;99577.75;;;12.02;48.18
60019;BME280;45870;42.528;26.740;2024-01-06T05:37:24;99580.03;;;11.21;50.03
60019;BME280;45870;42.528;26.740;2024-01-06T05:39:49;99578.16;;;12.49;47.33
60019;BME280;45870;42.528;26.740;2024-01-06T05:42:14;99579.88;;;13.16;45.50
60019;BME280;45870;42.528;26.740;2024-01-06T05:44:40;99587.78;;;12.40;46.18
60019;BME280;45870;42.528;26.740;2024-01-06T05:47:06;99583.69;;;10.75;50.84
60019;BME280;45870;42.528;26.740;2024-01-06T05:49:33;99589.72;;;8.51;60.24
60019;BME280;45870;42.528;26.740;2024-01-06T05:51:58;99580.75;;;11.16;52.43
60019;BME280;45870;42.528;26.740;2024-01-06T05:54:24;99573.56;;;10.93;53.46
60019;BME280;45870;42.528;26.740;2024-01-06T05:56:49;99576.00;;;10.95;54.41
60019;BME280;45870;42.528;26.740;2024-01-06T05:59:15;99579.38;;;12.20;50.86
60019;BME280;45870;42.528;26.740;2024-01-06T06:01:40;99581.44;;;10.14;55.16
60019;BME280;45870;42.528;26.740;2024-01-06T06:04:05;99583.19;;;9.14;57.77
60019;BME280;45870;42.528;26.740;2024-01-06T06:06:31;99575.78;;;8.79;58.87
60019;BME280;45870;42.528;26.740;2024-01-06T06:08:58;99583.28;;;9.78;55.83
60019;BME280;45870;42.528;26.740;2024-01-06T06:11:23;99574.75;;;10.86;53.47
60019;BME280;45870;42.528;26.740;2024-01-06T06:13:48;99585.00;;;10.14;55.70
60019;BME280;45870;42.528;26.740;2024-01-06T06:16:14;99583.69;;;10.75;56.33
60019;BME280;45870;42.528;26.740;2024-01-06T06:18:39;99578.28;;;10.75;56.53
60019;BME280;45870;42.528;26.740;2024-01-06T06:21:06;99571.50;;;10.02;57.95
60019;BME280;45870;42.528;26.740;2024-01-06T06:23:31;99578.19;;;10.35;56.26
60019;BME280;45870;42.528;26.740;2024-01-06T06:25:57;99575.06;;;12.79;50.83
60019;BME280;45870;42.528;26.740;2024-01-06T06:28:22;99578.88;;;13.22;49.33
60019;BME280;45870;42.528;26.740;2024-01-06T06:30:47;99580.72;;;12.99;51.72
60019;BME280;45870;42.528;26.740;2024-01-06T06:33:13;99583.22;;;13.23;51.80
60019;BME280;45870;42.528;26.740;2024-01-06T06:35:39;99589.75;;;15.58;47.61
60019;BME280;45870;42.528;26.740;2024-01-06T06:38:04;99580.41;;;15.29;46.38
60019;BME280;45870;42.528;26.740;2024-01-06T06:40:29;99589.44;;;14.77;48.39
60019;BME280;45870;42.528;26.740;2024-01-06T06:42:55;99578.59;;;15.80;47.66
60019;BME280;45870;42.528;26.740;2024-01-06T06:45:20;99581.56;;;16.69;44.40
60019;BME280;45870;42.528;26.740;2024-01-06T06:47:48;99576.84;;;14.24;48.91
60019;BME280;45870;42.528;26.740;2024-01-06T06:50:14;99577.25;;;16.38;44.94
60019;BME280;45870;42.528;26.740;2024-01-06T06:52:40;99587.06;;;15.68;46.01
60019;BME280;45870;42.528;26.740;2024-01-06T06:55:05;99339.41;;;12.26;51.82
60019;BME280;45870;42.528;26.740;2024-01-06T06:57:30;99576.81;;;12.69;54.83
60019;BME280;45870;42.528;26.740;2024-01-06T06:59:56;99580.84;;;12.88;55.36
60019;BME280;45870;42.528;26.740;2024-01-06T07:02:21;99579.50;;;15.13;49.53
60019;BME280;45870;42.528;26.740;2024-01-06T07:04:48;99572.59;;;17.28;44.67
60019;BME280;45870;42.528;26.740;2024-01-06T07:07:13;99577.81;;;16.20;46.02
60019;BME280;45870;42.528;26.740;2024-01-06T07:09:40;99580.72;;;14.75;50.80
60019;BME280;45870;42.528;26.740;2024-01-06T07:12:05;99572.09;;;16.11;47.27
60019;BME280;45870;42.528;26.740;2024-01-06T07:14:31;99564.09;;;16.75;46.43
60019;BME280;45870;42.528;26.740;2024-01-06T07:16:56;99566.09;;;16.39;46.80
60019;BME280;45870;42.528;26.740;2024-01-06T07:19:22;99571.50;;;15.59;48.81
60019;BME280;45870;42.528;26.740;2024-01-06T07:21:47;99571.56;;;17.19;45.09
60019;BME280;45870;42.528;26.740;2024-01-06T07:24:12;99575.34;;;18.73;42.00
60019;BME280;45870;42.528;26.740;2024-01-06T07:26:38;99575.00;;;17.88;43.60
60019;BME280;45870;42.528;26.740;2024-01-06T07:29:04;99568.88;;;15.02;49.52
60019;BME280;45870;42.528;26.740;2024-01-06T07:31:29;99568.81;;;15.84;48.38
60019;BME280;45870;42.528;26.740;2024-01-06T07:33:54;99556.84;;;15.80;48.84
60019;BME280;45870;42.528;26.740;2024-01-06T07:36:20;99566.38;;;18.68;42.50
60019;BME280;45870;42.528;26.740;2024-01-06T07:38:46;99568.41;;;17.51;44.89
60019;BME280;45870;42.528;26.740;2024-01-06T07:41:12;99551.34;;;16.40;48.18
60019;BME280;45870;42.528;26.740;2024-01-06T07:43:37;99567.19;;;14.38;52.57
60019;BME280;45870;42.528;26.740;2024-01-06T07:46:03;99556.09;;;14.97;51.53
60019;BME280;45870;42.528;26.740;2024-01-06T07:48:28;99559.38;;;15.04;51.73
60019;BME280;45870;42.528;26.740;2024-01-06T07:50:54;99556.91;;;17.10;46.18
60019;BME280;45870;42.528;26.740;2024-01-06T07:53:19;99548.16;;;17.08;46.26
60019;BME280;45870;42.528;26.740;2024-01-06T07:55:45;99545.63;;;15.46;49.99
60019;BME280;45870;42.528;26.740;2024-01-06T07:58:10;99542.25;;;14.10;54.14
60019;BME280;45870;42.528;26.740;2024-01-06T08:00:37;99540.41;;;15.24;50.47
60019;BME280;45870;42.528;26.740;2024-01-06T08:03:02;99548.88;;;14.29;52.57
60019;BME280;45870;42.528;26.740;2024-01-06T08:05:31;99535.16;;;16.94;46.81
60019;BME280;45870;42.528;26.740;2024-01-06T08:07:56;99538.34;;;17.12;46.95
60019;BME280;45870;42.528;26.740;2024-01-06T08:10:21;99551.31;;;17.79;45.42
60019;BME280;45870;42.528;26.740;2024-01-06T08:12:47;99543.78;;;15.52;53.29
60019;BME280;45870;42.528;26.740;2024-01-06T08:15:13;99544.56;;;16.23;50.90
60019;BME280;45870;42.528;26.740;2024-01-06T08:17:39;99536.59;;;16.77;51.48
60019;BME280;45870;42.528;26.740;2024-01-06T08:20:06;99535.59;;;19.23;46.83
60019;BME280;45870;42.528;26.740;2024-01-06T08:22:32;99527.81;;;19.12;46.14
60019;BME280;45870;42.528;26.740;2024-01-06T08:24:57;99516.16;;;20.27;43.39
60019;BME280;45870;42.528;26.740;2024-01-06T08:27:23;99512.13;;;19.92;44.49
60019;BME280;45870;42.528;26.740;2024-01-06T08:29:49;99510.09;;;19.84;44.67
60019;BME280;45870;42.528;26.740;2024-01-06T08:32:15;99506.78;;;20.47;43.49
60019;BME280;45870;42.528;26.740;2024-01-06T08:34:41;99511.78;;;21.13;42.08
60019;BME280;45870;42.528;26.740;2024-01-06T08:37:07;99511.88;;;20.80;42.58
60019;BME280;45870;42.528;26.740;2024-01-06T08:39:32;99504.59;;;21.39;41.65
60019;BME280;45870;42.528;26.740;2024-01-06T08:41:58;99505.56;;;19.74;44.73
60019;BME280;45870;42.528;26.740;2024-01-06T08:44:23;99509.81;;;19.99;44.76
60019;BME280;45870;42.528;26.740;2024-01-06T08:46:49;99500.63;;;21.45;41.68
60019;BME280;45870;42.528;26.740;2024-01-06T08:49:15;99494.00;;;20.69;43.05
60019;BME280;45870;42.528;26.740;2024-01-06T08:51:40;99492.88;;;20.84;42.74
60019;BME280;45870;42.528;26.740;2024-01-06T08:54:06;99489.72;;;20.90;43.18
60019;BME280;45870;42.528;26.740;2024-01-06T08:56:33;99493.38;;;20.31;44.19
60019;BME280;45870;42.528;26.740;2024-01-06T08:58:59;99485.56;;;20.06;45.15
60019;BME280;45870;42.528;26.740;2024-01-06T09:01:24;99479.13;;;20.16;44.61
60019;BME280;45870;42.528;26.740;2024-01-06T09:03:49;99480.28;;;21.46;42.25
60019;BME280;45870;42.528;26.740;2024-01-06T09:06:15;99474.03;;;21.76;41.71
60019;BME280;45870;42.528;26.740;2024-01-06T09:08:41;99475.53;;;21.60;41.66
60019;BME280;45870;42.528;26.740;2024-01-06T09:11:06;99466.09;;;23.32;38.48
60019;BME280;45870;42.528;26.740;2024-01-06T09:13:31;99470.44;;;22.20;40.68
60019;BME280;45870;42.528;26.740;2024-01-06T09:15:58;99467.72;;;21.76;42.07
60019;BME280;45870;42.528;26.740;2024-01-06T09:18:23;99464.94;;;20.82;44.28
60019;BME280;45870;42.528;26.740;2024-01-06T09:20:49;99461.13;;;21.19;43.32
60019;BME280;45870;42.528;26.740;2024-01-06T09:23:15;99470.22;;;21.41;42.61
60019;BME280;45870;42.528;26.740;2024-01-06T09:25:41;99460.06;;;20.92;43.32
60019;BME280;45870;42.528;26.740;2024-01-06T09:28:06;99460.84;;;21.07;43.46
60019;BME280;45870;42.528;26.740;2024-01-06T09:30:32;99459.81;;;21.16;43.19
60019;BME280;45870;42.528;26.740;2024-01-06T09:32:57;99461.41;;;20.68;43.68
60019;BME280;45870;42.528;26.740;2024-01-06T09:35:23;99457.69;;;21.13;42.88
60019;BME280;45870;42.528;26.740;2024-01-06T09:37:48;99434.91;;;21.71;40.89
60019;BME280;45870;42.528;26.740;2024-01-06T09:40:14;99452.69;;;21.73;41.21
60019;BME280;45870;42.528;26.740;2024-01-06T09:42:46;99447.66;;;20.81;42.90
60019;BME280;45870;42.528;26.740;2024-01-06T09:45:11;99432.97;;;21.49;41.78
60019;BME280;45870;42.528;26.740;2024-01-06T09:47:37;99439.00;;;21.82;41.25
60019;BME280;45870;42.528;26.740;2024-01-06T09:50:05;99436.13;;;21.87;41.20
60019;BME280;45870;42.528;26.740;2024-01-06T09:52:34;99429.47;;;23.06;38.92
60019;BME280;45870;42.528;26.740;2024-01-06T09:55:04;99422.19;;;23.27;38.35
60019;BME280;45870;42.528;26.740;2024-01-06T09:57:30;99426.25;;;22.56;39.13
60019;BME280;45870;42.528;26.740;2024-01-06T09:59:56;99420.94;;;22.60;38.88
60019;BME280;45870;42.528;26.740;2024-01-06T10:02:22;99388.66;;;23.08;38.17
60019;BME280;45870;42.528;26.740;2024-01-06T10:04:50;99411.34;;;22.01;39.99
60019;BME280;45870;42.528;26.740;2024-01-06T10:07:16;99401.03;;;21.84;40.49
60019;BME280;45870;42.528;26.740;2024-01-06T10:09:41;99406.78;;;21.96;40.20
60019;BME280;45870;42.528;26.740;2024-01-06T10:12:07;99398.53;;;22.27;39.45
60019;BME280;45870;42.528;26.740;2024-01-06T10:14:33;99387.94;;;21.81;40.58
60019;BME280;45870;42.528;26.740;2024-01-06T10:16:58;99381.34;;;22.21;39.60
60019;BME280;45870;42.528;26.740;2024-01-06T10:19:24;99378.13;;;23.10;38.20
60019;BME280;45870;42.528;26.740;2024-01-06T10:21:49;99379.41;;;23.64;37.24
60019;BME280;45870;42.528;26.740;2024-01-06T10:24:17;99356.94;;;23.11;38.08
60019;BME280;45870;42.528;26.740;2024-01-06T10:26:44;99355.78;;;23.12;38.43
60019;BME280;45870;42.528;26.740;2024-01-06T10:29:09;99362.50;;;22.06;39.89
60019;BME280;45870;42.528;26.740;2024-01-06T10:31:36;99363.81;;;22.48;39.03
60019;BME280;45870;42.528;26.740;2024-01-06T10:34:02;99356.09;;;23.02;38.40
60019;BME280;45870;42.528;26.740;2024-01-06T10:36:28;99347.03;;;23.44;37.43
60019;BME280;45870;42.528;26.740;2024-01-06T10:38:53;99341.56;;;22.19;39.13
60019;BME280;45870;42.528;26.740;2024-01-06T10:41:20;99340.63;;;21.92;39.76
60019;BME280;45870;42.528;26.740;2024-01-06T10:43:46;99336.66;;;22.07;39.76
60019;BME280;45870;42.528;26.740;2024-01-06T10:46:12;99342.66;;;22.09;39.29
60019;BME280;45870;42.528;26.740;2024-01-06T10:48:40;99334.69;;;21.68;40.45
60019;BME280;45870;42.528;26.740;2024-01-06T10:51:09;99334.50;;;22.44;39.13
60019;BME280;45870;42.528;26.740;2024-01-06T10:53:35;99328.34;;;22.47;39.05
60019;BME280;45870;42.528;26.740;2024-01-06T10:56:04;99161.66;;;20.45;40.96
60019;BME280;45870;42.528;26.740;2024-01-06T10:58:34;99323.09;;;22.93;38.60
60019;BME280;45870;42.528;26.740;2024-01-06T11:01:07;99321.59;;;23.13;37.86
60019;BME280;45870;42.528;26.740;2024-01-06T11:03:33;99322.91;;;22.98;38.47
60019;BME280;45870;42.528;26.740;2024-01-06T11:06:01;99314.94;;;23.22;37.92
60019;BME280;45870;42.528;26.740;2024-01-06T11:08:27;99310.13;;;23.02;38.42
60019;BME280;45870;42.528;26.740;2024-01-06T11:10:53;99302.75;;;23.40;37.90
60019;BME280;45870;42.528;26.740;2024-01-06T11:13:22;99290.97;;;23.23;37.67
60019;BME280;45870;42.528;26.740;2024-01-06T11:15:51;99289.97;;;21.85;40.57
60019;BME280;45870;42.528;26.740;2024-01-06T11:18:35;99292.00;;;22.67;39.03
60019;BME280;45870;42.528;26.740;2024-01-06T11:26:31;99279.06;;;22.93;38.63
60019;BME280;45870;42.528;26.740;2024-01-06T11:28:56;99282.22;;;22.35;39.98
60019;BME280;45870;42.528;26.740;2024-01-06T11:31:23;99278.38;;;22.53;39.83
60019;BME280;45870;42.528;26.740;2024-01-06T11:33:49;99274.38;;;22.94;38.90
60019;BME280;45870;42.528;26.740;2024-01-06T11:36:16;99276.81;;;23.59;37.75
60019;BME280;45870;42.528;26.740;2024-01-06T11:38:41;99266.69;;;23.25;38.16
60019;BME280;45870;42.528;26.740;2024-01-06T11:41:07;99259.56;;;23.24;38.31
60019;BME280;45870;42.528;26.740;2024-01-06T11:43:34;99255.16;;;23.49;38.24
60019;BME280;45870;42.528;26.740;2024-01-06T11:46:00;99258.72;;;23.49;38.01
60019;BME280;45870;42.528;26.740;2024-01-06T11:48:29;99248.06;;;23.77;37.54
60019;BME280;45870;42.528;26.740;2024-01-06T11:50:54;99251.91;;;23.29;38.50
60019;BME280;45870;42.528;26.740;2024-01-06T11:53:20;99253.44;;;23.18;38.36
60019;BME280;45870;42.528;26.740;2024-01-06T11:55:48;99247.63;;;22.42;39.55
60019;BME280;45870;42.528;26.740;2024-01-06T11:58:16;99244.09;;;22.94;38.83
60019;BME280;45870;42.528;26.740;2024-01-06T12:00:41;99242.28;;;22.46;39.68
60019;BME280;45870;42.528;26.740;2024-01-06T12:03:07;99252.88;;;23.33;38.64
60019;BME280;45870;42.528;26.740;2024-01-06T12:05:32;99242.97;;;22.77;39.29
60019;BME280;45870;42.528;26.740;2024-01-06T12:08:01;99231.28;;;21.72;41.23
60019;BME280;45870;42.528;26.740;2024-01-06T12:10:28;99230.00;;;22.86;39.30
60019;BME280;45870;42.528;26.740;2024-01-06T12:12:54;99235.31;;;22.06;40.87
60019;BME280;45870;42.528;26.740;2024-01-06T12:15:20;99237.03;;;21.93;41.13
60019;BME280;45870;42.528;26.740;2024-01-06T12:17:45;99238.22;;;22.18;40.54
60019;BME280;45870;42.528;26.740;2024-01-06T12:20:11;99235.31;;;22.06;40.73
60019;BME280;45870;42.528;26.740;2024-01-06T12:22:37;99233.09;;;21.85;41.40
60019;BME280;45870;42.528;26.740;2024-01-06T12:25:02;99234.97;;;21.99;41.05
60019;BME280;45870;42.528;26.740;2024-01-06T12:27:29;99234.09;;;21.11;42.82
60019;BME280;45870;42.528;26.740;2024-01-06T12:29:55;99222.94;;;21.47;42.40
60019;BME280;45870;42.528;26.740;2024-01-06T12:32:21;99212.50;;;21.18;42.88
60019;BME280;45870;42.528;26.740;2024-01-06T12:34:46;99226.94;;;21.10;43.54
60019;BME280;45870;42.528;26.740;2024-01-06T12:37:12;99215.19;;;20.87;44.11
60019;BME280;45870;42.528;26.740;2024-01-06T12:39:38;99224.50;;;21.70;42.49
60019;BME280;45870;42.528;26.740;2024-01-06T12:42:03;99232.53;;;20.74;44.50
60019;BME280;45870;42.528;26.740;2024-01-06T12:44:29;99219.25;;;20.89;44.30
60019;BME280;45870;42.528;26.740;2024-01-06T12:46:57;99223.69;;;21.30;43.51
60019;BME280;45870;42.528;26.740;2024-01-06T12:49:22;99225.22;;;21.14;43.71